createdAt,value
2023-03-01T00:00:03.259Z,-1.24
2023-03-01T00:02:29.877Z,-1.13
2023-03-01T00:04:56.552Z,-1.20
2023-03-01T00:07:22.938Z,-1.34
2023-03-01T00:09:49.625Z,-1.33
2023-03-01T00:12:16.327Z,-1.48
2023-03-01T00:14:42.655Z,-1.48
2023-03-01T00:17:09.515Z,-1.41
2023-03-01T00:19:36.200Z,-1.50
2023-03-01T00:22:02.768Z,-1.54
2023-03-01T00:24:29.127Z,-1.62
2023-03-01T00:26:56.019Z,-1.62
2023-03-01T00:29:24.484Z,-1.69
2023-03-01T00:31:50.934Z,-1.64
2023-03-01T00:34:17.501Z,-1.66
2023-03-01T00:36:43.819Z,-1.80
2023-03-01T00:39:13.998Z,-1.74
2023-03-01T00:41:40.662Z,-1.92
2023-03-01T00:44:07.105Z,-1.85
2023-03-01T00:46:33.728Z,-1.88
2023-03-01T00:49:00.355Z,-1.92
2023-03-01T00:51:29.464Z,-1.86
2023-03-01T00:53:59.894Z,-1.96
2023-03-01T00:56:27.046Z,-1.92
2023-03-01T00:58:53.810Z,-2.01
2023-03-01T01:01:26.426Z,-1.97
2023-03-01T01:03:57.436Z,-2.00
2023-03-01T01:06:30.363Z,-2.03
2023-03-01T01:08:57.756Z,-2.06
2023-03-01T01:11:26.801Z,-2.20
2023-03-01T01:13:53.693Z,-2.25
2023-03-01T01:16:22.260Z,-2.15
2023-03-01T01:18:48.945Z,-2.30
2023-03-01T01:21:17.752Z,-2.16
2023-03-01T01:23:45.423Z,-2.19
2023-03-01T01:26:41.022Z,-2.22
2023-03-01T01:29:07.950Z,-2.28
2023-03-01T01:31:36.761Z,-2.25
2023-03-01T01:34:04.721Z,-2.22
2023-03-01T01:36:32.204Z,-2.27
2023-03-01T01:38:59.449Z,-2.25
2023-03-01T01:41:27.345Z,-2.27
2023-03-01T01:44:29.700Z,-2.23
2023-03-01T01:47:06.724Z,-2.22
2023-03-01T01:49:48.005Z,-2.24
2023-03-01T01:52:42.974Z,-2.28
2023-03-01T01:55:14.975Z,-2.24
2023-03-01T01:57:48.036Z,-2.31
2023-03-01T02:00:22.025Z,-2.24
2023-03-01T02:02:51.642Z,-2.33
2023-03-01T02:05:33.715Z,-2.25
2023-03-01T02:08:00.523Z,-2.28
2023-03-01T02:10:28.771Z,-2.27
2023-03-01T02:12:56.149Z,-2.32
2023-03-01T02:15:24.123Z,-2.29
2023-03-01T02:17:51.508Z,-2.34
2023-03-01T02:20:27.614Z,-2.33
2023-03-01T02:22:55.364Z,-2.28
2023-03-01T02:25:47.502Z,-2.40
2023-03-01T02:28:16.883Z,-2.28
2023-03-01T02:30:48.687Z,-2.42
2023-03-01T02:33:15.189Z,-2.44
2023-03-01T02:35:41.629Z,-2.46
2023-03-01T02:38:10.036Z,-2.33
2023-03-01T02:40:38.923Z,-2.30
2023-03-01T02:43:09.032Z,-2.39
2023-03-01T02:45:35.410Z,-2.31
2023-03-01T02:48:02.096Z,-2.33
2023-03-01T02:50:31.451Z,-2.25
2023-03-01T02:53:12.217Z,-2.25
2023-03-01T02:55:38.757Z,-2.38
2023-03-01T02:58:05.587Z,-2.32
2023-03-01T03:00:41.840Z,-2.23
2023-03-01T03:03:08.632Z,-2.34
2023-03-01T03:05:35.020Z,-2.39
2023-03-01T03:08:03.188Z,-2.28
2023-03-01T03:10:33.649Z,-2.28
2023-03-01T03:13:05.688Z,-2.31
2023-03-01T03:15:33.223Z,-2.24
2023-03-01T03:18:00.055Z,-2.22
2023-03-01T03:20:29.205Z,-2.43
2023-03-01T03:22:57.372Z,-2.23
2023-03-01T03:25:24.246Z,-2.34
2023-03-01T03:27:52.410Z,-2.28
2023-03-01T03:30:20.752Z,-2.31
2023-03-01T03:32:48.386Z,-2.42
2023-03-01T03:35:14.720Z,-2.54
2023-03-01T03:37:41.407Z,-2.44
2023-03-01T03:40:08.577Z,-2.52
2023-03-01T03:42:34.974Z,-2.44
2023-03-01T03:45:01.432Z,-2.44
2023-03-01T03:47:27.810Z,-2.32
2023-03-01T03:49:54.103Z,-2.38
2023-03-01T03:52:20.554Z,-2.51
2023-03-01T03:54:46.839Z,-2.36
2023-03-01T03:57:13.263Z,-2.39
2023-03-01T03:59:39.874Z,-2.37
2023-03-01T04:02:06.247Z,-2.43
2023-03-01T04:04:32.677Z,-2.54
2023-03-01T04:06:59.123Z,-2.48
2023-03-01T04:09:25.425Z,-2.43
2023-03-01T04:11:51.730Z,-2.52
2023-03-01T04:14:18.412Z,-2.55
2023-03-01T04:16:44.766Z,-2.68
2023-03-01T04:19:11.189Z,-2.63
2023-03-01T04:21:38.121Z,-2.67
2023-03-01T04:24:05.336Z,-2.82
2023-03-01T04:26:31.805Z,-2.73
2023-03-01T04:28:58.342Z,-2.82
2023-03-01T04:31:24.801Z,-2.81
2023-03-01T04:33:54.616Z,-2.90
2023-03-01T04:36:26.655Z,-2.80
2023-03-01T04:38:53.831Z,-2.91
2023-03-01T04:41:22.639Z,-3.03
2023-03-01T04:43:49.613Z,-3.03
2023-03-01T04:46:18.804Z,-3.03
2023-03-01T04:48:45.991Z,-3.05
2023-03-01T04:51:13.094Z,-3.14
2023-03-01T04:53:39.704Z,-3.10
2023-03-01T04:56:06.697Z,-3.21
2023-03-01T04:58:34.110Z,-3.15
2023-03-01T05:01:00.464Z,-3.36
2023-03-01T05:03:26.851Z,-3.33
2023-03-01T05:05:53.755Z,-3.26
2023-03-01T05:08:20.322Z,-3.30
2023-03-01T05:10:49.889Z,-3.30
2023-03-01T05:13:17.173Z,-3.27
2023-03-01T05:15:43.552Z,-3.38
2023-03-01T05:18:10.022Z,-3.35
2023-03-01T05:20:36.588Z,-3.27
2023-03-01T05:23:03.096Z,-3.32
2023-03-01T05:25:29.493Z,-3.40
2023-03-01T05:27:55.889Z,-3.36
2023-03-01T05:30:22.343Z,-3.41
2023-03-01T05:32:51.315Z,-3.34
2023-03-01T05:35:19.173Z,-3.46
2023-03-01T05:37:48.281Z,-3.56
2023-03-01T05:40:20.498Z,-3.64
2023-03-01T05:42:53.062Z,-3.46
2023-03-01T05:45:19.424Z,-3.49
2023-03-01T05:47:48.322Z,-3.43
2023-03-01T05:50:18.369Z,-3.49
2023-03-01T05:52:44.958Z,-3.48
2023-03-01T05:55:11.935Z,-3.58
2023-03-01T05:57:38.557Z,-3.65
2023-03-01T06:00:05.552Z,-3.50
2023-03-01T06:02:32.114Z,-3.57
2023-03-01T06:04:58.494Z,-3.54
2023-03-01T06:07:25.028Z,-3.44
2023-03-01T06:09:51.473Z,-3.44
2023-03-01T06:12:18.070Z,-3.42
2023-03-01T06:14:47.522Z,-3.32
2023-03-01T06:17:14.401Z,-3.47
2023-03-01T06:19:40.823Z,-3.64
2023-03-01T06:22:07.376Z,-3.47
2023-03-01T06:24:33.757Z,-3.45
2023-03-01T06:27:00.164Z,-3.42
2023-03-01T06:29:26.678Z,-3.35
2023-03-01T06:31:53.184Z,-3.30
2023-03-01T06:34:19.791Z,-3.46
2023-03-01T06:36:47.371Z,-3.42
2023-03-01T06:39:13.850Z,-3.43
2023-03-01T06:41:41.690Z,-3.28
2023-03-01T06:44:08.273Z,-3.18
2023-03-01T06:46:34.846Z,-3.10
2023-03-01T06:49:01.276Z,-2.96
2023-03-01T06:51:27.567Z,-3.01
2023-03-01T06:53:54.130Z,-2.91
2023-03-01T06:56:20.459Z,-2.80
2023-03-01T06:58:46.909Z,-2.52
2023-03-01T07:01:13.585Z,-2.52
2023-03-01T07:03:39.901Z,-2.41
2023-03-01T07:06:06.663Z,-2.25
2023-03-01T07:08:33.017Z,-2.18
2023-03-01T07:10:59.965Z,-2.07
2023-03-01T07:13:26.414Z,-1.57
2023-03-01T07:15:54.537Z,-1.39
2023-03-01T07:18:21.261Z,-1.48
2023-03-01T07:20:47.626Z,-1.23
2023-03-01T07:23:14.126Z,-1.16
2023-03-01T07:25:40.552Z,-0.86
2023-03-01T07:28:07.215Z,-0.81
2023-03-01T07:30:35.920Z,-0.81
2023-03-01T07:33:03.504Z,-0.51
2023-03-01T07:35:30.130Z,-0.16
2023-03-01T07:37:57.841Z,-0.06
2023-03-01T07:40:24.920Z,0.00
2023-03-01T07:42:57.682Z,0.06
2023-03-01T07:45:24.830Z,-0.27
2023-03-01T07:47:52.049Z,-0.03
2023-03-01T07:50:19.127Z,0.24
2023-03-01T07:52:49.935Z,0.48
2023-03-01T07:55:18.266Z,0.43
2023-03-01T07:57:45.218Z,0.59
2023-03-01T08:00:14.689Z,0.51
2023-03-01T08:02:42.972Z,0.39
2023-03-01T08:05:10.626Z,0.50
2023-03-01T08:07:37.398Z,0.47
2023-03-01T08:10:04.300Z,0.38
2023-03-01T08:12:30.723Z,0.41
2023-03-01T08:14:57.436Z,1.10
2023-03-01T08:17:24.015Z,1.04
2023-03-01T08:19:50.817Z,0.94
2023-03-01T08:22:17.166Z,0.96
2023-03-01T08:24:44.338Z,1.18
2023-03-01T08:27:10.754Z,1.31
2023-03-01T08:29:37.693Z,1.30
2023-03-01T08:32:04.338Z,1.25
2023-03-01T08:34:30.999Z,1.32
2023-03-01T08:36:58.000Z,1.16
2023-03-01T08:39:24.469Z,1.31
2023-03-01T08:41:51.066Z,1.43
2023-03-01T08:44:17.851Z,1.87
2023-03-01T08:46:45.264Z,1.77
2023-03-01T08:49:17.846Z,2.22
2023-03-01T08:51:45.360Z,2.64
2023-03-01T08:54:13.157Z,2.47
2023-03-01T08:56:40.597Z,1.91
2023-03-01T08:59:07.140Z,1.99
2023-03-01T09:01:33.491Z,2.38
2023-03-01T09:04:00.274Z,2.42
2023-03-01T09:06:27.048Z,3.29
2023-03-01T09:08:53.388Z,3.70
2023-03-01T09:11:22.305Z,4.34
2023-03-01T09:13:50.254Z,4.78
2023-03-01T09:16:18.859Z,5.64
2023-03-01T09:18:47.785Z,6.37
2023-03-01T09:21:18.345Z,6.36
2023-03-01T09:23:48.575Z,6.28
2023-03-01T09:26:23.585Z,6.81
2023-03-01T09:28:53.101Z,6.11
2023-03-01T09:31:21.552Z,5.80
2023-03-01T09:33:49.984Z,5.74
2023-03-01T09:36:19.002Z,5.69
2023-03-01T09:38:45.896Z,5.65
2023-03-01T09:41:45.039Z,6.28
2023-03-01T09:44:36.053Z,6.97
2023-03-01T09:47:05.072Z,7.64
2023-03-01T09:49:39.693Z,8.44
2023-03-01T09:52:29.896Z,8.54
2023-03-01T09:54:59.646Z,9.46
2023-03-01T09:57:34.479Z,9.27
2023-03-01T10:00:30.834Z,9.39
2023-03-01T10:03:01.687Z,8.88
2023-03-01T10:05:45.859Z,8.25
2023-03-01T10:08:29.806Z,7.94
2023-03-01T10:10:56.353Z,8.49
2023-03-01T10:13:34.196Z,8.58
2023-03-01T10:16:44.246Z,8.24
2023-03-01T10:19:15.935Z,7.43
2023-03-01T10:21:46.440Z,7.24
2023-03-01T10:24:16.691Z,6.97
2023-03-01T10:27:05.106Z,7.03
2023-03-01T10:29:39.216Z,6.92
2023-03-01T10:32:06.190Z,6.58
2023-03-01T10:34:35.470Z,7.18
2023-03-01T10:37:11.167Z,7.46
2023-03-01T10:39:37.873Z,7.81
2023-03-01T10:42:20.146Z,7.90
2023-03-01T10:44:50.214Z,7.75
2023-03-01T10:47:26.663Z,8.07
2023-03-01T10:49:56.215Z,8.66
2023-03-01T10:52:26.365Z,8.55
2023-03-01T10:54:59.212Z,8.29
2023-03-01T10:57:32.025Z,8.86
2023-03-01T11:00:24.746Z,8.91
2023-03-01T11:03:04.321Z,8.93
2023-03-01T11:05:31.068Z,9.04
2023-03-01T11:07:59.688Z,9.03
2023-03-01T11:10:37.464Z,9.08
2023-03-01T11:13:21.219Z,9.44
2023-03-01T11:16:07.953Z,9.44
2023-03-01T11:18:47.177Z,9.45
2023-03-01T11:21:15.927Z,9.15
2023-03-01T11:23:44.096Z,8.88
2023-03-01T11:26:12.864Z,9.03
2023-03-01T11:28:42.989Z,9.26
2023-03-01T11:31:13.830Z,9.39
2023-03-01T11:33:56.120Z,9.06
2023-03-01T11:36:45.488Z,9.23
2023-03-01T11:39:14.796Z,9.11
2023-03-01T11:41:42.520Z,9.43
2023-03-01T11:44:21.091Z,10.08
2023-03-01T11:47:38.700Z,9.86
2023-03-01T11:50:17.588Z,9.77
2023-03-01T11:53:19.467Z,9.43
2023-03-01T11:56:26.861Z,9.55
2023-03-01T11:59:07.302Z,10.42
2023-03-01T12:01:42.449Z,9.88
2023-03-01T12:04:25.389Z,9.82
2023-03-01T12:06:57.818Z,9.24
2023-03-01T12:09:50.022Z,8.79
2023-03-01T12:12:34.002Z,8.52
2023-03-01T12:15:13.254Z,8.98
2023-03-01T12:18:10.405Z,8.88
2023-03-01T12:20:46.293Z,9.23
2023-03-01T12:23:41.845Z,10.01
2023-03-01T12:26:08.430Z,10.08
2023-03-01T12:28:45.936Z,10.25
2023-03-01T12:31:42.999Z,10.29
2023-03-01T12:34:28.697Z,9.53
2023-03-01T12:37:18.497Z,9.33
2023-03-01T12:40:24.145Z,9.93
2023-03-01T12:43:02.526Z,10.61
2023-03-01T12:45:28.956Z,11.20
2023-03-01T12:48:22.412Z,10.97
2023-03-01T12:50:54.156Z,10.85
2023-03-01T12:53:30.105Z,10.40
2023-03-01T12:56:03.152Z,9.77
2023-03-01T12:58:49.296Z,9.64
2023-03-01T13:01:27.177Z,9.82
2023-03-01T13:04:09.014Z,9.97
2023-03-01T13:06:49.086Z,10.15
2023-03-01T13:09:57.116Z,10.28
2023-03-01T13:12:57.629Z,10.41
2023-03-01T13:15:23.959Z,10.82
2023-03-01T13:17:53.787Z,10.41
2023-03-01T13:20:24.246Z,10.22
2023-03-01T13:23:03.044Z,10.27
2023-03-01T13:25:34.670Z,10.83
2023-03-01T13:28:36.634Z,10.87
2023-03-01T13:31:05.215Z,11.56
2023-03-01T13:33:31.460Z,11.48
2023-03-01T13:35:59.662Z,11.56
2023-03-01T13:38:48.587Z,11.39
2023-03-01T13:41:17.724Z,11.20
2023-03-01T13:43:47.017Z,10.59
2023-03-01T13:46:24.181Z,11.13
2023-03-01T13:48:54.588Z,11.29
2023-03-01T13:51:27.091Z,10.97
2023-03-01T13:53:56.729Z,10.71
2023-03-01T13:56:27.791Z,11.22
2023-03-01T13:59:00.061Z,11.65
2023-03-01T14:01:36.360Z,11.36
2023-03-01T14:04:05.039Z,10.53
2023-03-01T14:06:34.299Z,10.81
2023-03-01T14:09:19.552Z,10.71
2023-03-01T14:12:08.201Z,11.12
2023-03-01T14:14:49.938Z,11.47
2023-03-01T14:17:39.908Z,11.34
2023-03-01T14:20:15.614Z,11.31
2023-03-01T14:22:44.087Z,11.53
2023-03-01T14:25:25.896Z,11.74
2023-03-01T14:28:04.692Z,11.27
2023-03-01T14:30:41.086Z,11.48
2023-03-01T14:33:37.544Z,12.05
2023-03-01T14:36:08.408Z,11.74
2023-03-01T14:38:45.891Z,11.02
2023-03-01T14:41:19.684Z,10.51
2023-03-01T14:43:49.879Z,10.45
2023-03-01T14:46:22.384Z,10.21
2023-03-01T14:48:59.378Z,10.07
2023-03-01T14:51:25.840Z,9.89
2023-03-01T14:53:52.479Z,10.40
2023-03-01T14:56:19.219Z,9.93
2023-03-01T14:58:46.548Z,10.41
2023-03-01T15:01:16.939Z,10.78
2023-03-01T15:03:46.101Z,10.97
2023-03-01T15:06:17.017Z,10.78
2023-03-01T15:08:47.812Z,10.51
2023-03-01T15:11:14.177Z,10.54
2023-03-01T15:13:41.561Z,10.31
2023-03-01T15:16:11.627Z,10.36
2023-03-01T15:18:43.647Z,10.27
2023-03-01T15:21:17.664Z,10.44
2023-03-01T15:23:51.996Z,10.78
2023-03-01T15:26:25.911Z,10.94
2023-03-01T15:28:54.043Z,11.33
2023-03-01T15:31:23.618Z,11.36
2023-03-01T15:33:51.143Z,11.56
2023-03-01T15:36:46.552Z,11.55
2023-03-01T15:39:39.415Z,11.91
2023-03-01T15:42:11.648Z,12.08
2023-03-01T15:44:44.011Z,12.02
2023-03-01T15:47:29.802Z,11.80
2023-03-01T15:49:57.600Z,11.40
2023-03-01T15:52:44.465Z,10.87
2023-03-01T15:55:18.313Z,11.39
2023-03-01T15:57:44.744Z,11.16
2023-03-01T16:00:12.605Z,10.78
2023-03-01T16:02:39.403Z,10.24
2023-03-01T16:05:06.526Z,9.87
2023-03-01T16:07:32.826Z,9.23
2023-03-01T16:09:59.230Z,8.65
2023-03-01T16:12:25.605Z,8.62
2023-03-01T16:14:52.747Z,8.20
2023-03-01T16:17:19.149Z,7.77
2023-03-01T16:19:45.530Z,7.70
2023-03-01T16:22:11.994Z,7.51
2023-03-01T16:24:38.328Z,7.53
2023-03-01T16:27:04.616Z,7.16
2023-03-01T16:29:31.074Z,7.26
2023-03-01T16:31:57.553Z,6.75
2023-03-01T16:34:24.348Z,6.55
2023-03-01T16:36:50.719Z,6.49
2023-03-01T16:39:17.191Z,6.83
2023-03-01T16:41:43.574Z,6.65
2023-03-01T16:44:09.990Z,6.63
2023-03-01T16:46:36.559Z,6.21
2023-03-01T16:49:02.996Z,6.40
2023-03-01T16:51:29.817Z,6.35
2023-03-01T16:53:56.556Z,6.22
2023-03-01T16:56:23.195Z,6.06
2023-03-01T16:58:49.587Z,6.20
2023-03-01T17:01:20.686Z,5.86
2023-03-01T17:03:48.422Z,5.89
2023-03-01T17:06:18.609Z,5.69
2023-03-01T17:08:45.017Z,6.02
2023-03-01T17:11:18.243Z,5.83
2023-03-01T17:13:46.218Z,5.66
2023-03-01T17:16:15.838Z,5.64
2023-03-01T17:18:42.545Z,5.75
2023-03-01T17:21:09.719Z,5.27
2023-03-01T17:23:38.088Z,5.01
2023-03-01T17:26:04.778Z,5.34
2023-03-01T17:28:33.358Z,5.04
2023-03-01T17:31:01.461Z,4.91
2023-03-01T17:33:28.262Z,4.99
2023-03-01T17:35:55.000Z,4.86
2023-03-01T17:38:21.289Z,4.99
2023-03-01T17:40:48.000Z,4.80
2023-03-01T17:43:15.799Z,4.75
2023-03-01T17:45:42.657Z,4.68
2023-03-01T17:48:09.043Z,4.64
2023-03-01T17:50:38.851Z,4.63
2023-03-01T17:53:05.267Z,4.40
2023-03-01T17:55:31.645Z,4.22
2023-03-01T17:57:57.961Z,4.26
2023-03-01T18:00:24.762Z,4.28
2023-03-01T18:02:51.144Z,4.30
2023-03-01T18:05:17.474Z,4.14
2023-03-01T18:07:43.820Z,4.02
2023-03-01T18:10:10.719Z,4.01
2023-03-01T18:12:37.372Z,3.89
2023-03-01T18:15:07.837Z,4.08
2023-03-01T18:17:34.234Z,3.99
2023-03-01T18:20:00.724Z,3.66
2023-03-01T18:22:27.072Z,3.67
2023-03-01T18:24:53.412Z,4.04
2023-03-01T18:27:20.010Z,4.12
2023-03-01T18:29:46.320Z,4.07
2023-03-01T18:32:12.822Z,4.00
2023-03-01T18:34:39.194Z,4.09
2023-03-01T18:37:09.644Z,4.12
2023-03-01T18:39:37.178Z,3.80
2023-03-01T18:42:03.779Z,3.66
2023-03-01T18:44:30.170Z,3.93
2023-03-01T18:46:57.299Z,3.47
2023-03-01T18:49:24.238Z,3.70
2023-03-01T18:51:50.571Z,3.68
2023-03-01T18:54:17.058Z,3.61
2023-03-01T18:56:43.383Z,3.78
2023-03-01T18:59:10.050Z,3.77
2023-03-01T19:01:37.679Z,3.69
2023-03-01T19:04:05.190Z,3.73
2023-03-01T19:06:33.613Z,3.50
2023-03-01T19:09:00.470Z,3.43
2023-03-01T19:11:26.933Z,3.22
2023-03-01T19:13:54.197Z,3.19
2023-03-01T19:16:24.645Z,3.34
2023-03-01T19:18:50.985Z,3.16
2023-03-01T19:21:19.926Z,3.08
2023-03-01T19:23:47.241Z,3.00
2023-03-01T19:26:15.595Z,2.71
2023-03-01T19:28:42.448Z,2.92
2023-03-01T19:31:11.414Z,2.92
2023-03-01T19:33:38.663Z,3.18
2023-03-01T19:36:06.137Z,3.10
2023-03-01T19:38:32.491Z,3.20
2023-03-01T19:40:58.924Z,2.89
2023-03-01T19:43:25.345Z,3.00
2023-03-01T19:45:53.060Z,3.16
2023-03-01T19:48:20.321Z,3.01
2023-03-01T19:50:46.930Z,2.82
2023-03-01T19:53:14.891Z,2.98
2023-03-01T19:55:42.182Z,2.89
2023-03-01T19:58:09.688Z,3.37
2023-03-01T20:00:37.307Z,3.26
2023-03-01T20:03:03.840Z,3.00
2023-03-01T20:05:34.419Z,2.87
2023-03-01T20:08:00.916Z,2.99
2023-03-01T20:10:32.759Z,2.86
2023-03-01T20:12:59.430Z,2.86
2023-03-01T20:15:25.790Z,2.88
2023-03-01T20:17:52.134Z,2.66
2023-03-01T20:20:18.567Z,2.64
2023-03-01T20:22:44.899Z,2.48
2023-03-01T20:25:11.550Z,2.45
2023-03-01T20:27:37.978Z,2.54
2023-03-01T20:30:05.584Z,2.61
2023-03-01T20:32:32.575Z,2.52
2023-03-01T20:34:58.980Z,2.40
2023-03-01T20:37:25.579Z,2.55
2023-03-01T20:39:51.952Z,2.33
2023-03-01T20:42:18.336Z,2.12
2023-03-01T20:44:44.785Z,2.07
2023-03-01T20:47:17.445Z,2.47
2023-03-01T20:49:43.895Z,2.62
2023-03-01T20:52:10.276Z,2.85
2023-03-01T20:54:36.784Z,2.47
2023-03-01T20:57:03.233Z,2.19
2023-03-01T20:59:29.647Z,2.49
2023-03-01T21:01:56.010Z,2.57
2023-03-01T21:04:22.530Z,2.54
2023-03-01T21:06:49.010Z,2.33
2023-03-01T21:09:15.447Z,2.41
2023-03-01T21:11:41.744Z,2.47
2023-03-01T21:14:09.768Z,2.42
2023-03-01T21:16:36.681Z,2.39
2023-03-01T21:19:03.298Z,2.30
2023-03-01T21:21:30.110Z,2.29
2023-03-01T21:23:56.565Z,2.24
2023-03-01T21:26:27.230Z,2.43
2023-03-01T21:28:58.925Z,2.61
2023-03-01T21:31:27.834Z,2.47
2023-03-01T21:33:57.017Z,2.68
2023-03-01T21:36:34.912Z,2.39
2023-03-01T21:39:02.048Z,2.57
2023-03-01T21:41:31.177Z,2.38
2023-03-01T21:43:59.280Z,2.44
2023-03-01T21:46:27.789Z,2.33
2023-03-01T21:48:55.255Z,2.33
2023-03-01T21:51:23.949Z,2.57
2023-03-01T21:53:50.321Z,2.15
2023-03-01T21:56:22.255Z,2.19
2023-03-01T21:58:49.198Z,2.13
2023-03-01T22:01:17.503Z,2.05
2023-03-01T22:03:45.001Z,2.36
2023-03-01T22:06:33.992Z,2.28
2023-03-01T22:09:05.688Z,2.38
2023-03-01T22:11:35.072Z,2.15
2023-03-01T22:14:02.051Z,1.86
2023-03-01T22:16:31.502Z,2.37
2023-03-01T22:18:58.455Z,2.18
2023-03-01T22:21:25.530Z,1.84
2023-03-01T22:23:53.154Z,1.82
2023-03-01T22:26:35.431Z,1.95
2023-03-01T22:29:04.093Z,2.17
2023-03-01T22:31:30.914Z,1.91
2023-03-01T22:33:58.115Z,1.94
2023-03-01T22:36:25.114Z,1.83
2023-03-01T22:38:51.836Z,1.82
2023-03-01T22:41:18.216Z,1.80
2023-03-01T22:43:44.605Z,1.72
2023-03-01T22:46:13.331Z,1.70
2023-03-01T22:48:39.978Z,1.67
2023-03-01T22:51:06.396Z,1.66
2023-03-01T22:53:33.557Z,1.53
2023-03-01T22:56:09.645Z,1.55
2023-03-01T22:58:35.981Z,1.60
2023-03-01T23:01:02.343Z,1.48
2023-03-01T23:03:28.843Z,1.74
2023-03-01T23:05:55.352Z,1.81
2023-03-01T23:08:21.688Z,1.73
2023-03-01T23:10:47.994Z,1.70
2023-03-01T23:13:14.493Z,1.67
2023-03-01T23:15:40.871Z,1.50
2023-03-01T23:18:07.390Z,1.29
2023-03-01T23:20:36.003Z,1.34
2023-03-01T23:23:02.450Z,1.34
2023-03-01T23:25:28.842Z,1.43
2023-03-01T23:27:55.309Z,1.43
2023-03-01T23:30:21.601Z,1.31
2023-03-01T23:32:48.020Z,1.41
2023-03-01T23:35:14.600Z,1.46
2023-03-01T23:37:40.990Z,1.55
2023-03-01T23:40:07.884Z,1.38
2023-03-01T23:42:34.346Z,1.31
2023-03-01T23:45:01.277Z,1.20
2023-03-01T23:47:27.660Z,1.20
2023-03-01T23:49:53.961Z,1.20
2023-03-01T23:52:20.294Z,1.18
2023-03-01T23:54:46.718Z,1.23
2023-03-01T23:57:13.177Z,1.19
2023-03-01T23:59:39.563Z,1.06
